Change the Weather History Date:

Friday, November 2, 2012

  Actual Average (KOFF) Record (KOFF)
Temperature  
Mean Temperature 46 °F -  
Max Temperature 55 °F 53 °F 80 °F (2005)
Min Temperature 37 °F 35 °F 17 °F (2006)
Degree Days  
Heating Degree Days 19    
Moisture  
Dew Point 31 °F    
Average Humidity 62    
Maximum Humidity 91    
Minimum Humidity 35    
Precipitation  
Precipitation 0.00 in - - ()
Sea Level Pressure  
Sea Level Pressure 29.98 in    
Wind  
Wind Speed 9 mph (ENE)    
Max Wind Speed 14 mph    
Max Gust Speed 18 mph    
Visibility 10 miles    
Events      
Averages and records for this station are not official NWS values.
T = Trace of Precipitation, MM = Missing Value Source: NWS Daily Summary

Daily Weather History Graph

Daily Weather History Graph

Search for Another Location

Airport or City:

Trip Planner

Search our weather history database for the weather conditions in past years. The results will help you decide how hot, cold, wet, or windy it might be!

Date:

Astronomy

Nov. 02, 2012 Rise Set
Actual Time 7:56 AM CDT 6:17 PM CDT
Civil Twilight 7:27 AM CDT 6:46 PM CDT
Nautical Twilight 6:55 AM CDT 7:18 PM CDT
Astronomical Twilight 6:22 AM CDT 7:50 PM CDT
Moon 9:04 PM CDT (11/2) 11:18 AM CDT (11/2)
Length of Visible Light 11h 18m
Length of Day
10h 21m
Waning Gibbous, 87% of the Moon is Illuminated
Nov 2
Waning Gibbous
Nov 6
Last Quarter
Nov 13
New
Nov 20
First Quarter
Nov 28
Full

Hourly Weather History & Observations

Time (CDT) Temp. Windchill Dew Point Humidity Pressure Visibility Wind Dir Wind Speed Gust Speed Precip Events Conditions
12:15 AM 39.7 °F 34.3 °F 37.4 °F 91% 29.99 in 7.0 mi NE 8.1 mph - N/A   Clear
12:35 AM 40.3 °F 34.4 °F 35.8 °F 84% 29.99 in 10.0 mi NE 9.2 mph - N/A   Clear
12:55 AM 40.8 °F 36.2 °F 34.5 °F 78% 29.99 in 10.0 mi ENE 6.9 mph - N/A   Clear
1:15 AM 40.1 °F 34.7 °F 33.3 °F 77% 30.00 in 10.0 mi NE 8.1 mph - N/A   Clear
1:35 AM 39.4 °F 33.8 °F 32.7 °F 77% 30.00 in 10.0 mi ENE 8.1 mph - N/A   Clear
1:55 AM 39.9 °F 34.5 °F 32.2 °F 74% 29.99 in 10.0 mi ENE 8.1 mph - N/A   Clear
2:15 AM 39.4 °F 33.8 °F 32.2 °F 75% 29.99 in 10.0 mi ENE 8.1 mph - N/A   Clear
2:35 AM 39.4 °F 33.8 °F 32.0 °F 75% 29.99 in 10.0 mi ENE 8.1 mph - N/A   Clear
2:55 AM 38.8 °F 33.8 °F 32.0 °F 76% 29.99 in 10.0 mi ENE 6.9 mph - N/A   Clear
3:15 AM 38.8 °F 33.2 °F 32.0 °F 76% 29.99 in 10.0 mi ENE 8.1 mph - N/A   Clear
3:35 AM 38.8 °F 32.6 °F 32.0 °F 76% 29.97 in 10.0 mi East 9.2 mph - N/A   Clear
3:55 AM 39.0 °F 32.3 °F 31.3 °F 74% 29.97 in 10.0 mi East 10.4 mph - N/A   Clear
4:15 AM 39.2 °F 33.6 °F 30.9 °F 72% 29.97 in 10.0 mi East 8.1 mph - N/A   Clear
4:35 AM 38.7 °F 31.8 °F 30.9 °F 74% 29.97 in 10.0 mi East 10.4 mph - N/A   Clear
4:55 AM 38.8 °F 32.1 °F 30.7 °F 73% 29.97 in 10.0 mi East 10.4 mph - N/A   Clear
5:15 AM 38.8 °F 32.6 °F 30.9 °F 73% 29.97 in 10.0 mi ESE 9.2 mph - N/A   Clear
5:35 AM 38.5 °F 32.1 °F 31.1 °F 75% 29.97 in 10.0 mi East 9.2 mph - N/A   Clear
5:55 AM 38.8 °F 32.1 °F 30.9 °F 73% 29.97 in 10.0 mi ESE 10.4 mph - N/A   Clear
6:15 AM 38.8 °F 32.1 °F 31.1 °F 74% 29.98 in 10.0 mi ESE 10.4 mph - N/A   Clear
6:35 AM 38.5 °F 32.7 °F 31.3 °F 75% 29.98 in 10.0 mi ESE 8.1 mph - N/A   Clear
6:55 AM 37.9 °F 31.5 °F 31.1 °F 76% 29.97 in 10.0 mi East 9.2 mph - N/A   Clear
7:15 AM 38.1 °F 31.7 °F 31.5 °F 77% 29.97 in 10.0 mi ESE 9.2 mph - N/A   Clear
8:55 AM 37.8 °F 29.4 °F 31.3 °F 77% 29.97 in 10.0 mi ESE 13.8 mph - N/A   Clear
9:15 AM 38.8 °F 31.2 °F 31.6 °F 75% 29.97 in 10.0 mi ESE 12.7 mph - N/A   Clear
9:35 AM 40.1 °F 33.2 °F 31.1 °F 70% 29.97 in 10.0 mi ESE 11.5 mph - N/A   Clear
9:55 AM 40.8 °F 34.5 °F 31.1 °F 68% 29.98 in 10.0 mi ESE 10.4 mph - N/A   Clear
10:15 AM 42.8 °F 36.6 °F 31.8 °F 65% 29.98 in 10.0 mi SE 11.5 mph - N/A   Clear
10:35 AM 43.5 °F 37.1 °F 31.5 °F 63% 29.99 in 10.0 mi ESE 12.7 mph 18.4 mph N/A   Clear
10:55 AM 45.0 °F 39.7 °F 32.0 °F 60% 29.99 in 10.0 mi ESE 10.4 mph 18.4 mph N/A   Clear
11:15 AM 46.6 °F - 32.0 °F 57% 29.98 in 10.0 mi SE 11.5 mph 17.3 mph N/A   Clear
11:35 AM 48.4 °F - 32.2 °F 54% 29.99 in 10.0 mi ESE 10.4 mph - N/A   Clear
11:55 AM 49.6 °F - 32.0 °F 51% 29.98 in 10.0 mi East 12.7 mph 18.4 mph N/A   Clear
12:15 PM 49.6 °F - 31.8 °F 50% 29.97 in 10.0 mi East 10.4 mph 17.3 mph N/A   Clear
12:35 PM 50.5 °F - 31.3 °F 48% 29.97 in 10.0 mi ESE 11.5 mph 16.1 mph N/A   Clear
12:55 PM 50.4 °F - 30.2 °F 46% 29.97 in 10.0 mi ESE 8.1 mph - N/A   Clear
1:15 PM 51.4 °F - 29.5 °F 43% 29.96 in 10.0 mi East 10.4 mph - N/A   Clear
1:35 PM 52.7 °F - 29.3 °F 41% 29.95 in 10.0 mi East 13.8 mph 17.3 mph N/A   Clear
1:55 PM 52.9 °F - 28.8 °F 40% 29.94 in 10.0 mi East 11.5 mph - N/A   Clear
2:15 PM 53.6 °F - 28.8 °F 39% 29.92 in 10.0 mi East 12.7 mph 17.3 mph N/A   Clear
2:35 PM 54.0 °F - 28.9 °F 38% 29.92 in 10.0 mi East 11.5 mph - N/A   Clear
2:55 PM 54.5 °F - 29.1 °F 38% 29.92 in 10.0 mi East 10.4 mph - N/A   Clear
3:15 PM 55.6 °F - 28.6 °F 36% 29.92 in 10.0 mi ENE 8.1 mph - N/A   Clear
3:35 PM 54.9 °F - 27.9 °F 35% 29.93 in 10.0 mi East 9.2 mph - N/A   Clear
3:55 PM 54.5 °F - 27.7 °F 36% 29.93 in 10.0 mi ENE 9.2 mph - N/A   Clear
4:15 PM 54.7 °F - 27.7 °F 35% 29.93 in 10.0 mi ENE 6.9 mph - N/A   Clear
4:35 PM 54.7 °F - 27.9 °F 36% 29.94 in 10.0 mi NE 9.2 mph - N/A   Clear
4:55 PM 54.1 °F - 27.0 °F 35% 29.94 in 10.0 mi ENE 5.8 mph - N/A   Clear
5:15 PM 53.2 °F - 30.2 °F 41% 29.95 in 10.0 mi NNE 6.9 mph - N/A   Clear
5:35 PM 52.7 °F - 30.7 °F 43% 29.96 in 10.0 mi North 5.8 mph - N/A   Clear
5:55 PM 51.3 °F - 31.8 °F 47% 29.97 in 10.0 mi North 4.6 mph - N/A   Clear
6:15 PM 49.8 °F - 32.0 °F 50% 29.98 in 10.0 mi North 5.8 mph - N/A   Clear
6:35 PM 48.2 °F - 31.6 °F 53% 29.98 in 10.0 mi NNE 6.9 mph - N/A   Clear
6:55 PM 46.9 °F - 32.0 °F 56% 29.99 in 10.0 mi NNE 6.9 mph - N/A   Clear
7:15 PM 46.4 °F 43.5 °F 31.8 °F 57% 30.00 in 10.0 mi NNE 5.8 mph - N/A   Clear
7:35 PM 45.5 °F 43.2 °F 31.8 °F 59% 30.01 in 10.0 mi NNE 4.6 mph - N/A   Clear
7:55 PM 44.8 °F 41.6 °F 31.8 °F 60% 30.01 in 10.0 mi NNE 5.8 mph - N/A   Clear
8:15 PM 44.1 °F 40.1 °F 32.0 °F 63% 30.02 in 10.0 mi North 6.9 mph - N/A   Clear
8:35 PM 43.7 °F 39.7 °F 32.0 °F 63% 30.02 in 10.0 mi NE 6.9 mph - N/A   Clear
8:55 PM 43.0 °F 39.5 °F 32.2 °F 66% 30.03 in 10.0 mi North 5.8 mph - N/A   Clear
9:15 PM 42.3 °F 37.3 °F 32.0 °F 67% 30.04 in 10.0 mi North 8.1 mph - N/A   Clear
9:35 PM 42.3 °F 37.9 °F 32.0 °F 67% 30.04 in 10.0 mi NNE 6.9 mph - N/A   Clear
9:55 PM 41.5 °F 36.4 °F 32.0 °F 69% 30.04 in 10.0 mi North 8.1 mph - N/A   Clear
10:15 PM 40.6 °F 36.0 °F 32.0 °F 71% 30.05 in 10.0 mi North 6.9 mph - N/A   Clear
10:35 PM 40.1 °F 35.3 °F 32.0 °F 73% 30.05 in 10.0 mi NNE 6.9 mph - N/A   Clear
10:55 PM 40.1 °F 36.1 °F 31.8 °F 72% 30.06 in 10.0 mi NNE 5.8 mph - N/A   Clear
11:15 PM 40.1 °F 38.0 °F 31.6 °F 72% 30.06 in 10.0 mi North 3.5 mph - N/A   Clear
11:35 PM 38.7 °F 36.3 °F 31.1 °F 74% 30.07 in 10.0 mi North 3.5 mph - N/A   Clear
11:55 PM 37.6 °F 34.0 °F 31.1 °F 77% 30.07 in 10.0 mi NNW 4.6 mph - N/A   Clear